createdAt,value
2023-10-09T00:01:06.526Z,52.55
2023-10-09T00:03:34.245Z,51.75
2023-10-09T00:06:02.747Z,49.66
2023-10-09T00:08:32.290Z,49.09
2023-10-09T00:11:14.889Z,49.91
2023-10-09T00:13:52.309Z,51.08
2023-10-09T00:16:36.570Z,50.88
2023-10-09T00:19:31.162Z,52.08
2023-10-09T00:21:59.802Z,53.57
2023-10-09T00:24:26.576Z,53.71
2023-10-09T00:27:02.842Z,53.84
2023-10-09T00:29:36.089Z,54.27
2023-10-09T00:32:14.695Z,54.21
2023-10-09T00:34:41.479Z,55.08
2023-10-09T00:37:17.282Z,54.11
2023-10-09T00:39:45.228Z,53.48
2023-10-09T00:42:16.798Z,54.41
2023-10-09T00:44:43.573Z,54.04
2023-10-09T00:47:22.155Z,54.88
2023-10-09T00:50:02.152Z,54.65
2023-10-09T00:52:33.936Z,55.95
2023-10-09T00:55:24.614Z,55.87
2023-10-09T00:58:01.346Z,56.77
2023-10-09T01:00:46.440Z,56.17
2023-10-09T01:03:18.234Z,56.98
2023-10-09T01:06:04.546Z,57.26
2023-10-09T01:08:44.851Z,56.85
2023-10-09T01:11:19.804Z,56.19
2023-10-09T01:13:47.865Z,56.63
2023-10-09T01:16:18.521Z,57.48
2023-10-09T01:18:48.224Z,56.78
2023-10-09T01:21:15.916Z,57.83
2023-10-09T01:24:02.171Z,58.25
2023-10-09T01:26:48.518Z,58.93
2023-10-09T01:29:20.352Z,59.02
2023-10-09T01:32:01.987Z,59.86
2023-10-09T01:34:46.165Z,59.19
2023-10-09T01:37:18.462Z,59.79
2023-10-09T01:39:46.713Z,59.21
2023-10-09T01:42:24.644Z,59.52
2023-10-09T01:44:51.858Z,59.28
2023-10-09T01:47:20.120Z,59.46
2023-10-09T01:49:50.045Z,59.55
2023-10-09T01:52:17.601Z,60.01
2023-10-09T01:54:52.423Z,60.22
2023-10-09T01:57:24.003Z,59.54
2023-10-09T01:59:54.713Z,60.53
2023-10-09T02:02:32.667Z,60.63
2023-10-09T02:05:08.699Z,59.87
2023-10-09T02:07:41.904Z,60.19
2023-10-09T02:10:33.232Z,59.15
2023-10-09T02:13:01.467Z,58.57
2023-10-09T02:15:44.021Z,58.25
2023-10-09T02:18:24.606Z,58.37
2023-10-09T02:21:00.645Z,57.52
2023-10-09T02:23:42.445Z,57.73
2023-10-09T02:26:10.587Z,58.02
2023-10-09T02:28:37.545Z,57.06
2023-10-09T02:31:14.534Z,55.37
2023-10-09T02:33:41.483Z,53.60
2023-10-09T02:36:08.472Z,52.83
2023-10-09T02:38:38.831Z,52.87
2023-10-09T02:41:05.475Z,51.25
2023-10-09T02:43:49.143Z,50.94
2023-10-09T02:46:19.621Z,50.20
2023-10-09T02:48:53.687Z,49.88
2023-10-09T02:51:27.634Z,49.75
2023-10-09T02:53:56.847Z,49.97
2023-10-09T02:56:37.006Z,48.44
2023-10-09T02:59:07.441Z,48.95
2023-10-09T03:01:40.069Z,49.95
2023-10-09T03:04:07.629Z,48.48
2023-10-09T03:06:39.526Z,50.26
2023-10-09T03:09:17.814Z,48.50
2023-10-09T03:11:49.395Z,48.75
2023-10-09T03:14:18.124Z,49.18
2023-10-09T03:16:44.842Z,48.28
2023-10-09T03:19:12.074Z,48.87
2023-10-09T03:21:38.807Z,48.85
2023-10-09T03:24:06.730Z,48.75
2023-10-09T03:26:33.503Z,48.98
2023-10-09T03:29:03.207Z,48.70
2023-10-09T03:31:32.002Z,48.77
2023-10-09T03:33:58.858Z,49.85
2023-10-09T03:36:28.010Z,50.36
2023-10-09T03:38:59.361Z,49.57
2023-10-09T03:41:30.368Z,49.91
2023-10-09T03:43:57.037Z,49.92
2023-10-09T03:46:34.237Z,50.51
2023-10-09T03:49:11.900Z,49.57
2023-10-09T03:51:38.731Z,49.83
2023-10-09T03:54:08.938Z,51.29
2023-10-09T03:56:36.355Z,50.24
2023-10-09T03:59:05.843Z,50.40
2023-10-09T04:01:42.144Z,49.46
2023-10-09T04:04:11.937Z,49.69
2023-10-09T04:06:39.078Z,51.10
2023-10-09T04:09:19.968Z,51.06
2023-10-09T04:11:47.985Z,49.87
2023-10-09T04:14:40.901Z,50.32
2023-10-09T04:17:27.515Z,50.53
2023-10-09T04:20:13.064Z,50.07
2023-10-09T04:22:43.844Z,50.65
2023-10-09T04:25:16.101Z,50.68
2023-10-09T04:27:42.929Z,52.55
2023-10-09T04:30:16.514Z,51.29
2023-10-09T04:32:46.383Z,50.78
2023-10-09T04:35:25.798Z,50.80
2023-10-09T04:38:04.765Z,51.76
2023-10-09T04:40:52.674Z,51.30
2023-10-09T04:43:22.245Z,52.79
2023-10-09T04:46:09.212Z,52.33
2023-10-09T04:48:46.997Z,50.42
2023-10-09T04:51:22.452Z,51.74
2023-10-09T04:54:09.781Z,52.70
2023-10-09T04:56:52.634Z,52.77
2023-10-09T04:59:20.206Z,52.27
2023-10-09T05:01:59.070Z,51.89
2023-10-09T05:04:38.894Z,51.32
2023-10-09T05:07:24.079Z,51.42
2023-10-09T05:09:57.665Z,50.05
2023-10-09T05:12:30.523Z,51.49
2023-10-09T05:15:14.504Z,51.06
2023-10-09T05:17:47.103Z,50.43
2023-10-09T05:20:28.794Z,50.58
2023-10-09T05:22:58.455Z,50.50
2023-10-09T05:25:54.559Z,50.93
2023-10-09T05:28:37.418Z,50.50
2023-10-09T05:31:08.922Z,51.19
2023-10-09T05:33:39.216Z,51.26
2023-10-09T05:36:27.054Z,50.18
2023-10-09T05:39:00.369Z,49.36
2023-10-09T05:41:48.886Z,49.03
2023-10-09T05:44:34.140Z,51.17
2023-10-09T05:47:19.039Z,50.52
2023-10-09T05:49:56.252Z,50.96
2023-10-09T05:52:39.032Z,50.08
2023-10-09T05:55:42.368Z,50.51
2023-10-09T05:58:27.583Z,49.63
2023-10-09T06:01:13.042Z,50.49
2023-10-09T06:04:13.504Z,51.24
2023-10-09T06:06:46.307Z,51.96
2023-10-09T06:09:15.128Z,50.69
2023-10-09T06:12:12.518Z,50.23
2023-10-09T06:14:39.180Z,50.20
2023-10-09T06:17:14.627Z,50.62
2023-10-09T06:19:50.046Z,50.06
2023-10-09T06:22:25.836Z,49.66
2023-10-09T06:24:55.316Z,49.93
2023-10-09T06:27:32.175Z,48.86
2023-10-09T06:30:18.754Z,49.82
2023-10-09T06:33:03.980Z,49.34
2023-10-09T06:35:34.392Z,51.58
2023-10-09T06:38:04.462Z,49.50
2023-10-09T06:40:52.925Z,49.07
2023-10-09T06:43:23.795Z,49.87
2023-10-09T06:45:59.586Z,48.55
2023-10-09T06:48:36.123Z,48.99
2023-10-09T06:51:25.942Z,49.25
2023-10-09T06:53:57.112Z,49.07
2023-10-09T06:56:44.999Z,48.98
2023-10-09T06:59:22.729Z,49.33
2023-10-09T07:02:08.798Z,48.85
2023-10-09T07:04:36.073Z,48.57
2023-10-09T07:07:03.293Z,48.50
2023-10-09T07:10:05.295Z,49.21
2023-10-09T07:12:35.190Z,48.02
2023-10-09T07:15:02.831Z,47.67
2023-10-09T07:17:35.448Z,47.94
2023-10-09T07:20:11.391Z,47.78
2023-10-09T07:22:40.985Z,47.49
2023-10-09T07:25:28.924Z,47.98
2023-10-09T07:27:56.747Z,46.82
2023-10-09T07:30:32.754Z,46.18
2023-10-09T07:33:14.316Z,45.42
2023-10-09T07:35:58.838Z,45.85
2023-10-09T07:38:30.166Z,46.48
2023-10-09T07:41:06.845Z,45.86
2023-10-09T07:43:41.246Z,46.17
2023-10-09T07:46:27.192Z,45.71
2023-10-09T07:48:54.808Z,44.83
2023-10-09T07:51:24.505Z,43.90
2023-10-09T07:54:09.605Z,44.61
2023-10-09T07:56:42.443Z,44.38
2023-10-09T07:59:12.572Z,44.76
2023-10-09T08:01:54.103Z,44.59
2023-10-09T08:04:41.221Z,43.35
2023-10-09T08:08:03.108Z,43.79
2023-10-09T08:10:15.992Z,42.98
2023-10-09T08:12:59.332Z,42.90
2023-10-09T08:15:49.949Z,42.56
2023-10-09T08:18:29.208Z,41.93
2023-10-09T08:20:58.995Z,42.16
2023-10-09T08:23:34.806Z,41.95
2023-10-09T08:26:14.465Z,41.17
2023-10-09T08:28:49.863Z,40.86
2023-10-09T08:31:36.131Z,40.95
2023-10-09T08:36:37.866Z,39.96
2023-10-09T08:39:26.213Z,39.72
2023-10-09T08:41:53.717Z,39.61
2023-10-09T08:44:26.228Z,40.79
2023-10-09T08:46:55.381Z,40.20
2023-10-09T08:49:22.800Z,39.69
2023-10-09T08:51:49.734Z,40.74
2023-10-09T08:54:16.694Z,40.97
2023-10-09T08:56:52.745Z,41.60
2023-10-09T08:59:20.924Z,42.29
2023-10-09T09:01:53.127Z,41.41
2023-10-09T09:04:36.468Z,41.27
2023-10-09T09:07:03.424Z,41.23
2023-10-09T09:09:33.113Z,41.24
2023-10-09T09:12:01.268Z,41.81
2023-10-09T09:14:40.168Z,42.40
2023-10-09T09:17:12.733Z,41.86
2023-10-09T09:19:39.668Z,40.74
2023-10-09T09:22:14.205Z,41.18
2023-10-09T09:24:48.753Z,41.68
2023-10-09T09:27:19.803Z,40.50
2023-10-09T09:29:54.145Z,39.69
2023-10-09T09:32:37.284Z,39.26
2023-10-09T09:35:07.512Z,39.72
2023-10-09T09:37:44.788Z,38.57
2023-10-09T09:40:34.779Z,39.89
2023-10-09T09:43:06.539Z,37.92
2023-10-09T09:45:36.022Z,37.34
2023-10-09T09:48:07.595Z,37.47
2023-10-09T09:50:38.141Z,37.68
2023-10-09T09:53:05.200Z,37.11
2023-10-09T09:55:35.452Z,36.68
2023-10-09T09:58:07.473Z,35.76
2023-10-09T10:00:41.967Z,36.11
2023-10-09T10:03:23.605Z,36.82
2023-10-09T10:05:52.061Z,35.80
2023-10-09T10:08:21.380Z,36.35
2023-10-09T10:10:51.204Z,36.04
2023-10-09T10:13:29.048Z,36.15
2023-10-09T10:16:03.749Z,35.83
2023-10-09T10:18:36.532Z,36.33
2023-10-09T10:21:17.515Z,35.63
2023-10-09T10:23:48.966Z,35.87
2023-10-09T10:26:28.836Z,34.99
2023-10-09T10:29:24.559Z,35.82
2023-10-09T10:32:02.606Z,34.79
2023-10-09T10:34:58.299Z,34.88
2023-10-09T10:38:09.649Z,34.95
2023-10-09T10:40:40.349Z,34.91
2023-10-09T10:43:33.007Z,35.68
2023-10-09T10:46:25.561Z,34.11
2023-10-09T10:49:00.472Z,33.95
2023-10-09T10:51:39.155Z,34.50
2023-10-09T10:54:46.889Z,35.10
2023-10-09T10:57:52.413Z,34.85
2023-10-09T11:00:37.353Z,33.45
2023-10-09T11:03:19.073Z,33.87
2023-10-09T11:05:52.035Z,33.41
2023-10-09T11:08:24.731Z,33.36
2023-10-09T11:10:52.364Z,33.07
2023-10-09T11:13:34.248Z,34.22
2023-10-09T11:16:21.260Z,34.01
2023-10-09T11:18:47.937Z,32.90
2023-10-09T11:21:16.130Z,35.07
2023-10-09T11:23:59.534Z,34.26
2023-10-09T11:26:29.050Z,31.75
2023-10-09T11:29:20.168Z,30.00
2023-10-09T11:32:07.169Z,26.43
2023-10-09T11:34:35.964Z,24.52
2023-10-09T11:37:10.093Z,22.08
2023-10-09T11:39:37.498Z,21.10
2023-10-09T11:42:15.494Z,22.40
2023-10-09T11:44:46.781Z,22.38
2023-10-09T11:47:19.636Z,20.72
2023-10-09T11:49:57.804Z,20.68
2023-10-09T11:52:37.043Z,20.96
2023-10-09T11:55:06.093Z,20.38
2023-10-09T11:57:33.101Z,19.05
2023-10-09T12:00:01.410Z,17.78
2023-10-09T12:02:28.780Z,17.22
2023-10-09T12:04:58.740Z,17.01
2023-10-09T12:07:26.516Z,17.23
2023-10-09T12:09:57.694Z,16.38
2023-10-09T12:12:27.897Z,16.06
2023-10-09T12:14:54.930Z,15.92
2023-10-09T12:17:26.043Z,15.77
2023-10-09T12:19:53.045Z,16.37
2023-10-09T12:22:22.654Z,15.98
2023-10-09T12:24:49.541Z,17.00
2023-10-09T12:27:21.382Z,17.22
2023-10-09T12:29:50.668Z,15.98
2023-10-09T12:32:20.970Z,16.12
2023-10-09T12:34:51.990Z,16.14
2023-10-09T12:37:22.041Z,16.72
2023-10-09T12:39:49.055Z,17.24
2023-10-09T12:42:18.106Z,17.17
2023-10-09T12:44:45.634Z,17.57
2023-10-09T12:47:16.691Z,17.14
2023-10-09T12:49:44.649Z,17.10
2023-10-09T12:52:17.698Z,18.90
2023-10-09T12:54:47.978Z,18.45
2023-10-09T12:57:14.932Z,18.46
2023-10-09T12:59:49.841Z,20.13
2023-10-09T13:02:31.977Z,23.40
2023-10-09T13:05:01.282Z,25.88
2023-10-09T13:07:28.152Z,27.72
2023-10-09T13:10:10.338Z,29.47
2023-10-09T13:12:42.762Z,30.90
2023-10-09T13:15:10.911Z,31.89
2023-10-09T13:17:40.760Z,32.66
2023-10-09T13:20:14.147Z,33.26
2023-10-09T13:22:44.647Z,33.33
2023-10-09T13:25:33.715Z,33.61
2023-10-09T13:28:04.806Z,36.23
2023-10-09T13:30:40.601Z,35.21
2023-10-09T13:33:08.291Z,36.25
2023-10-09T13:35:48.304Z,35.58
2023-10-09T13:38:16.724Z,36.85
2023-10-09T13:40:43.498Z,36.44
2023-10-09T13:43:17.636Z,37.91
2023-10-09T13:45:51.094Z,37.29
2023-10-09T13:48:19.046Z,37.83
2023-10-09T13:50:45.820Z,37.37
2023-10-09T13:53:13.939Z,38.42
2023-10-09T13:55:44.868Z,37.00
2023-10-09T13:58:15.220Z,37.41
2023-10-09T14:00:47.467Z,38.01
2023-10-09T14:03:14.673Z,38.42
2023-10-09T14:05:58.221Z,37.70
2023-10-09T14:08:27.205Z,40.68
2023-10-09T14:10:53.853Z,40.00
2023-10-09T14:13:27.236Z,38.31
2023-10-09T14:15:55.510Z,39.04
2023-10-09T14:18:23.065Z,39.69
2023-10-09T14:20:51.098Z,39.13
2023-10-09T14:23:21.871Z,40.17
2023-10-09T14:25:50.943Z,39.35
2023-10-09T14:28:20.532Z,39.35
2023-10-09T14:30:51.837Z,34.05
2023-10-09T14:33:24.209Z,38.94
2023-10-09T14:35:53.443Z,40.09
2023-10-09T14:38:27.812Z,39.86
2023-10-09T14:41:01.091Z,40.32
2023-10-09T14:43:34.688Z,40.62
2023-10-09T14:46:03.716Z,39.95
2023-10-09T14:48:30.500Z,41.52
2023-10-09T14:51:05.895Z,40.99
2023-10-09T14:53:33.832Z,40.24
2023-10-09T14:56:02.539Z,41.53
2023-10-09T14:58:31.642Z,40.54
2023-10-09T15:00:58.282Z,40.72
2023-10-09T15:03:25.138Z,40.58
2023-10-09T15:05:51.941Z,41.17
2023-10-09T15:08:19.071Z,41.09
2023-10-09T15:10:50.149Z,41.30
2023-10-09T15:13:19.681Z,40.56
2023-10-09T15:15:46.957Z,40.79
2023-10-09T15:18:13.800Z,41.50
2023-10-09T15:20:41.465Z,41.07
2023-10-09T15:23:09.498Z,41.68
2023-10-09T15:25:36.573Z,42.27
2023-10-09T15:28:04.193Z,42.19
2023-10-09T15:30:32.604Z,41.56
2023-10-09T15:32:59.400Z,41.61
2023-10-09T15:35:29.773Z,41.62
2023-10-09T15:37:56.468Z,42.55
2023-10-09T15:40:25.350Z,43.43
2023-10-09T15:42:54.503Z,44.02
2023-10-09T15:45:23.036Z,44.14
2023-10-09T15:47:52.476Z,44.22
2023-10-09T15:50:20.431Z,44.49
2023-10-09T15:52:50.499Z,45.10
2023-10-09T15:55:21.916Z,45.83
2023-10-09T15:57:53.727Z,45.25
2023-10-09T16:00:21.613Z,45.95
2023-10-09T16:02:49.992Z,46.32
2023-10-09T16:05:18.184Z,46.27
2023-10-09T16:07:45.495Z,46.63
2023-10-09T16:10:12.489Z,45.89
2023-10-09T16:12:40.602Z,46.00
2023-10-09T16:15:07.843Z,46.37
2023-10-09T16:17:35.035Z,46.66
2023-10-09T16:20:02.556Z,47.54
2023-10-09T16:22:29.599Z,48.94
2023-10-09T16:25:00.930Z,47.48
2023-10-09T16:27:28.825Z,47.82
2023-10-09T16:29:55.824Z,47.71
2023-10-09T16:32:22.694Z,48.51
2023-10-09T16:34:51.026Z,48.70
2023-10-09T16:37:23.468Z,48.73
2023-10-09T16:39:54.987Z,49.02
2023-10-09T16:42:25.312Z,47.98
2023-10-09T16:44:52.218Z,48.76
2023-10-09T16:47:19.346Z,48.33
2023-10-09T16:49:52.661Z,48.15
2023-10-09T16:52:19.647Z,49.73
2023-10-09T16:54:46.459Z,48.69
2023-10-09T16:57:14.044Z,49.08
2023-10-09T16:59:42.999Z,50.12
2023-10-09T17:02:14.375Z,50.42
2023-10-09T17:04:43.855Z,49.93
2023-10-09T17:07:15.876Z,50.52
2023-10-09T17:09:48.956Z,50.13
2023-10-09T17:12:18.654Z,50.35
2023-10-09T17:14:45.717Z,51.40
2023-10-09T17:17:12.479Z,51.00
2023-10-09T17:19:39.552Z,50.17
2023-10-09T17:22:12.574Z,51.47
2023-10-09T17:24:45.380Z,49.60
2023-10-09T17:27:18.822Z,50.20
2023-10-09T17:29:47.702Z,50.18
2023-10-09T17:32:15.381Z,50.14
2023-10-09T17:34:45.013Z,50.60
2023-10-09T17:37:13.343Z,50.74
2023-10-09T17:39:40.135Z,51.43
2023-10-09T17:42:09.402Z,50.99
2023-10-09T17:44:36.029Z,51.37
2023-10-09T17:47:02.900Z,51.32
2023-10-09T17:49:29.633Z,51.96
2023-10-09T17:51:56.272Z,52.33
2023-10-09T17:54:24.715Z,52.33
2023-10-09T17:56:51.935Z,51.89
2023-10-09T17:59:19.398Z,53.01
2023-10-09T18:01:46.215Z,52.19
2023-10-09T18:04:15.053Z,55.29
2023-10-09T18:06:43.392Z,55.35
2023-10-09T18:09:19.150Z,55.66
2023-10-09T18:11:46.804Z,55.68
2023-10-09T18:14:15.081Z,55.73
2023-10-09T18:16:46.239Z,55.28
2023-10-09T18:19:15.831Z,54.41
2023-10-09T18:21:42.902Z,54.96
2023-10-09T18:24:15.374Z,55.62
2023-10-09T18:26:42.863Z,55.67
2023-10-09T18:29:13.413Z,56.12
2023-10-09T18:31:42.036Z,56.90
2023-10-09T18:34:08.851Z,52.42
2023-10-09T18:36:36.913Z,53.27
2023-10-09T18:39:04.316Z,55.10
2023-10-09T18:41:31.046Z,55.11
2023-10-09T18:44:00.898Z,54.45
2023-10-09T18:46:27.742Z,54.14
2023-10-09T18:48:56.793Z,54.01
2023-10-09T18:51:23.464Z,53.71
2023-10-09T18:53:50.187Z,54.07
2023-10-09T18:56:21.293Z,56.29
2023-10-09T18:58:48.299Z,55.27
2023-10-09T19:01:15.705Z,55.71
2023-10-09T19:03:43.148Z,56.44
2023-10-09T19:06:11.367Z,54.99
2023-10-09T19:08:38.172Z,56.61
2023-10-09T19:11:10.880Z,56.79
2023-10-09T19:13:41.139Z,57.56
2023-10-09T19:16:09.590Z,56.23
2023-10-09T19:18:37.145Z,55.92
2023-10-09T19:21:11.822Z,54.62
2023-10-09T19:23:42.332Z,55.13
2023-10-09T19:26:09.975Z,56.75
2023-10-09T19:28:40.241Z,56.63
2023-10-09T19:31:11.046Z,55.44
2023-10-09T19:33:43.262Z,54.64
2023-10-09T19:36:12.958Z,54.34
2023-10-09T19:38:40.265Z,55.09
2023-10-09T19:41:07.732Z,55.04
2023-10-09T19:43:35.385Z,55.92
2023-10-09T19:46:06.210Z,56.05
2023-10-09T19:48:34.287Z,56.63
2023-10-09T19:51:05.869Z,56.94
2023-10-09T19:53:32.684Z,58.67
2023-10-09T19:56:01.296Z,57.40
2023-10-09T19:58:28.154Z,58.21
2023-10-09T20:00:54.817Z,58.52
2023-10-09T20:03:22.274Z,59.16
2023-10-09T20:05:49.933Z,58.29
2023-10-09T20:08:17.481Z,58.71
2023-10-09T20:10:44.737Z,58.44
2023-10-09T20:13:12.802Z,58.08
2023-10-09T20:15:45.459Z,57.57
2023-10-09T20:18:12.795Z,57.52
2023-10-09T20:20:40.243Z,58.17
2023-10-09T20:23:08.762Z,58.20
2023-10-09T20:25:35.460Z,58.58
2023-10-09T20:28:02.070Z,57.72
2023-10-09T20:30:28.764Z,58.27
2023-10-09T20:32:55.571Z,58.28
2023-10-09T20:35:27.755Z,58.78
2023-10-09T20:38:04.443Z,58.28
2023-10-09T20:40:31.178Z,59.03
2023-10-09T20:42:57.806Z,58.57
2023-10-09T20:45:25.183Z,58.48
2023-10-09T20:47:59.658Z,59.10
2023-10-09T20:50:27.140Z,59.83
2023-10-09T20:52:54.593Z,59.52
2023-10-09T20:55:26.055Z,59.63
2023-10-09T20:58:00.656Z,57.15
2023-10-09T21:00:33.178Z,58.04
2023-10-09T21:03:00.205Z,59.16
2023-10-09T21:05:27.361Z,59.87
2023-10-09T21:07:55.510Z,60.58
2023-10-09T21:10:23.094Z,60.57
2023-10-09T21:12:51.023Z,60.18
2023-10-09T21:15:22.160Z,60.25
2023-10-09T21:17:53.450Z,60.55
2023-10-09T21:20:20.972Z,61.00
2023-10-09T21:22:55.134Z,61.23
2023-10-09T21:25:26.470Z,62.07
2023-10-09T21:27:55.654Z,62.91
2023-10-09T21:30:24.629Z,63.21
2023-10-09T21:32:54.684Z,63.66
2023-10-09T21:35:23.157Z,64.53
2023-10-09T21:37:53.504Z,63.83
2023-10-09T21:40:29.470Z,63.58
2023-10-09T21:42:57.071Z,63.14
2023-10-09T21:45:25.503Z,63.97
2023-10-09T21:47:56.441Z,65.71
2023-10-09T21:50:28.898Z,65.87
2023-10-09T21:52:59.824Z,65.68
2023-10-09T21:55:32.358Z,66.72
2023-10-09T21:58:02.450Z,66.33
2023-10-09T22:00:37.409Z,65.96
2023-10-09T22:03:09.399Z,65.66
2023-10-09T22:05:43.142Z,65.77
2023-10-09T22:08:11.135Z,64.22
2023-10-09T22:10:39.018Z,63.95
2023-10-09T22:13:09.041Z,63.48
2023-10-09T22:15:36.209Z,63.23
2023-10-09T22:18:11.092Z,63.06
2023-10-09T22:20:38.944Z,63.27
2023-10-09T22:23:12.002Z,62.64
2023-10-09T22:25:38.742Z,62.79
2023-10-09T22:28:10.325Z,62.46
2023-10-09T22:30:37.665Z,62.08
2023-10-09T22:33:06.145Z,61.38
2023-10-09T22:35:34.676Z,61.20
2023-10-09T22:38:09.098Z,60.39
2023-10-09T22:40:39.998Z,60.14
2023-10-09T22:43:10.429Z,60.24
2023-10-09T22:45:40.749Z,61.21
2023-10-09T22:48:08.018Z,59.78
2023-10-09T22:50:37.629Z,61.34
2023-10-09T22:53:23.492Z,59.86
2023-10-09T22:55:55.162Z,59.87
2023-10-09T22:58:29.436Z,60.20
2023-10-09T23:01:02.373Z,59.76
2023-10-09T23:03:29.725Z,62.01
2023-10-09T23:06:25.144Z,60.49
2023-10-09T23:08:55.960Z,62.48
2023-10-09T23:11:26.678Z,61.32
2023-10-09T23:13:53.755Z,62.50
2023-10-09T23:16:34.866Z,61.04
2023-10-09T23:19:08.222Z,62.55
2023-10-09T23:21:53.368Z,63.76
2023-10-09T23:24:28.633Z,61.88
2023-10-09T23:26:56.647Z,62.91
2023-10-09T23:29:30.753Z,62.82
2023-10-09T23:32:20.650Z,62.24
2023-10-09T23:34:56.023Z,63.16
2023-10-09T23:37:58.036Z,62.23
2023-10-09T23:40:39.210Z,63.04
2023-10-09T23:43:13.956Z,63.32
2023-10-09T23:45:42.214Z,63.89
2023-10-09T23:48:15.815Z,63.13
2023-10-09T23:50:45.363Z,64.06
2023-10-09T23:53:16.047Z,64.33
2023-10-09T23:55:45.760Z,63.99
2023-10-09T23:58:17.734Z,65.52
